アムステルダム/スキポール の空港の天気 - METARとTAF

スキポール空港(アムステルダム) ( EHAM / AMS ) - オランダ アムステルダム
飛行場実況気象(Metar)
観測時間01/23 06:25 CET (01/23 05:25 UTC)
風向・風速南南西 4m/s
視程10km以上
天気現象
全天の8割程度の雲 雲底高度 1160m
気温4℃
湿度93%
気圧1019hPa
METAREHAM 230525Z 20008KT 9999 BKN038 04/03 Q1019 NOSIG
過去の天気等 Google飛行場航空写真 Wunderground天気予報

過去48時間のMETAR

飛行場予報(TAF)
発表時間: 1/23 05:57 CET (1/23 04:57 UTC)
予報対象時間: 23日7時 CET ~ 24日13時 CET
風向・風速南 4m/s
視程10km以上
全天の8割程度の雲 雲底高度 1,220m
23日7時 CET ~ 23日10時 CET に 確率 30% で一時的に
視程6,000m
全天の8割程度の雲 雲底高度 300m
23日12時 CET ~ 23日15時 CET に徐々に
風向・風速南南西 9m/s
視程6,000m
天気現象弱い雨霧雨
全天の8割程度の雲 雲底高度 370m
23日15時 CET ~ 23日18時 CET に徐々に
視程4,000m
天気現象もや 弱い霧雨
全天の8割程度の雲 雲底高度 180m
23日18時 CET ~ 24日3時 CET に 確率 40% で一時的に
視程2,000m
天気現象霧雨
全天の8割程度の雲 雲底高度 120m
24日1時 CET ~ 24日4時 CET に徐々に
視程6,000m
天気現象運行に影響にある天気現象が終了
全天の8割程度の雲 雲底高度 300m
24日3時 CET ~ 24日9時 CET に 確率 40% で一時的に
視程4,000m
天気現象弱い霧雨
全天の8割程度の雲 雲底高度 180m
24日7時 CET ~ 24日10時 CET に徐々に
風向・風速南南西 11m/s 瞬間風速 17m/s
視程8,000m
全天の8割程度の雲 雲底高度 460m
TAF EHAM 230457Z 2306/2412 19008KT 9999 BKN040
PROB30 TEMPO 2306/2309 6000 BKN010
BECMG 2311/2314 21018KT 6000 -RADZ BKN012
BECMG 2314/2317 4000 BR -DZ BKN006
PROB40 TEMPO 2317/2402 2000 DZ BKN004
BECMG 2400/2403 6000 NSW BKN010
PROB40 TEMPO 2402/2408 4000 -DZ BKN006
BECMG 2406/2409 20021G33KT 8000 BKN015